Time;durP1;ratioP1;P1;durP2;ratioP2;P2;SDS_P1;SDS_P2;PMS_P1;PMS_P2;Temp;Humidity;BMP_temperature;BMP_pressure;BME280_temperature;BME280_humidity;BME280_pressure;Samples;Min_cycle;Max_cycle;Signal;HPM_P1;HPM_P2
2021/08/29 00:00:15;;;;;;;3.00;1.05;;;;;;;12.56;100.00;100996.38;4993982;28;20195;-74
2021/08/29 00:03:18;;;;;;;1.95;0.98;;;;;;;12.49;100.00;100990.31;4994782;28;20103;-74
2021/08/29 00:06:21;;;;;;;3.13;1.60;;;;;;;12.44;100.00;100990.91;4992807;28;20047;-75
2021/08/29 00:09:24;;;;;;;2.67;1.48;;;;;;;11.38;100.00;100995.75;4993925;28;20068;-73
2021/08/29 00:12:27;;;;;;;1.45;0.77;;;;;;;11.64;100.00;101004.75;4994391;28;20103;-74
2021/08/29 00:15:30;;;;;;;1.17;0.52;;;;;;;12.21;100.00;100991.47;4997202;28;20064;-74
2021/08/29 00:18:33;;;;;;;1.70;0.32;;;;;;;12.26;100.00;100977.66;4995963;28;20179;-74
2021/08/29 00:21:36;;;;;;;4.72;1.30;;;;;;;12.35;100.00;100991.66;4997287;28;20049;-74
2021/08/29 00:24:39;;;;;;;2.22;1.00;;;;;;;12.30;100.00;100983.88;4998143;28;20447;-75
2021/08/29 00:27:42;;;;;;;3.20;1.42;;;;;;;10.91;100.00;100997.03;4995723;28;20047;-74
2021/08/29 00:30:45;;;;;;;2.80;1.08;;;;;;;11.32;100.00;100999.56;4995500;28;20042;-74
2021/08/29 00:33:49;;;;;;;5.57;1.08;;;;;;;11.81;100.00;100997.78;4996540;28;20671;-74
2021/08/29 00:36:51;;;;;;;7.97;1.58;;;;;;;12.00;100.00;100993.84;4997105;28;20048;-75
2021/08/29 00:39:55;;;;;;;6.47;2.22;;;;;;;12.16;100.00;100990.03;4994400;28;20419;-74
2021/08/29 00:43:00;;;;;;;3.00;1.27;;;;;;;12.37;100.00;100988.41;4995335;28;20044;-74
2021/08/29 00:46:05;;;;;;;1.05;1.05;;;;;;;12.24;100.00;100980.13;4992518;28;20540;-73
2021/08/29 00:49:11;;;;;;;2.25;0.60;;;;;;;12.45;100.00;100978.53;4993436;28;20105;-74
2021/08/29 00:52:14;;;;;;;4.35;1.35;;;;;;;12.51;100.00;100976.66;4993563;28;20044;-74
2021/08/29 00:55:18;;;;;;;3.95;1.08;;;;;;;12.36;100.00;100975.69;4994854;28;20048;-74
2021/08/29 00:58:22;;;;;;;3.10;1.13;;;;;;;12.36;100.00;100978.47;4993982;28;20094;-74
2021/08/29 01:01:36;;;;;;;8.02;2.15;;;;;;;12.38;100.00;100970.41;4989958;28;20423;-74
2021/08/29 01:05:02;;;;;;;3.50;1.25;;;;;;;12.47;100.00;100976.03;4998276;28;20106;-75
2021/08/29 01:08:12;;;;;;;2.47;1.38;;;;;;;12.45;100.00;100967.34;4979545;28;20730;-75
2021/08/29 01:11:24;;;;;;;8.50;0.77;;;;;;;12.39;100.00;100963.59;4993394;28;20063;-74
2021/08/29 01:14:31;;;;;;;2.63;1.13;;;;;;;12.40;100.00;100971.53;4991406;28;20593;-74
2021/08/29 01:17:36;;;;;;;2.80;1.20;;;;;;;12.40;100.00;100965.16;4992804;28;20044;-75
2021/08/29 01:20:57;;;;;;;4.13;1.38;;;;;;;12.35;100.00;100962.94;4993736;28;20056;-74
2021/08/29 01:24:05;;;;;;;2.05;1.08;;;;;;;12.27;100.00;100961.69;4993456;28;20753;-74
2021/08/29 01:27:24;;;;;;;4.65;1.40;;;;;;;12.18;100.00;100962.44;4992292;28;20048;-74
2021/08/29 01:30:28;;;;;;;6.82;1.40;;;;;;;12.21;100.00;100958.72;4991471;28;20774;-74
2021/08/29 01:33:31;;;;;;;3.55;1.02;;;;;;;12.11;100.00;100959.91;4991722;28;20080;-75
2021/08/29 01:36:37;;;;;;;1.60;0.73;;;;;;;12.06;100.00;100958.50;4992484;28;21173;-74
2021/08/29 01:39:40;;;;;;;2.28;0.68;;;;;;;12.00;100.00;100960.34;4994459;28;20048;-74
2021/08/29 01:42:44;;;;;;;3.42;1.33;;;;;;;12.01;100.00;100959.13;4991572;28;20055;-74
2021/08/29 01:45:48;;;;;;;7.07;1.23;;;;;;;12.05;100.00;100962.53;4991972;28;20076;-74
2021/08/29 01:48:51;;;;;;;6.70;2.00;;;;;;;11.99;100.00;100958.00;4993179;28;20044;-74
2021/08/29 01:51:55;;;;;;;5.40;1.88;;;;;;;11.98;100.00;100956.44;4992475;28;20327;-74
2021/08/29 01:54:58;;;;;;;6.13;1.73;;;;;;;12.00;100.00;100954.75;4993527;28;20116;-74
2021/08/29 01:58:01;;;;;;;9.25;1.67;;;;;;;11.97;100.00;100957.69;4993360;28;20488;-74
2021/08/29 02:01:12;;;;;;;4.88;1.67;;;;;;;11.96;100.00;100947.75;4991544;28;20044;-74
2021/08/29 02:04:15;;;;;;;8.75;2.40;;;;;;;11.99;100.00;100953.22;4980452;28;20823;-73
2021/08/29 02:07:42;;;;;;;3.38;1.33;;;;;;;12.03;100.00;100958.66;4992770;28;20052;-74
2021/08/29 02:10:50;;;;;;;4.57;2.55;;;;;;;11.99;100.00;100953.22;4991511;28;20151;-75
2021/08/29 02:13:56;;;;;;;4.38;0.98;;;;;;;11.99;100.00;100958.81;4992982;28;20045;-74
2021/08/29 02:17:01;;;;;;;3.05;1.20;;;;;;;11.89;100.00;100962.75;4994360;28;20771;-75
2021/08/29 02:20:09;;;;;;;17.73;2.22;;;;;;;11.88;100.00;100964.00;4992919;28;20048;-74
2021/08/29 02:23:15;;;;;;;11.35;1.13;;;;;;;11.93;100.00;100960.59;4995596;28;20048;-74
2021/08/29 02:26:23;;;;;;;2.33;1.50;;;;;;;11.92;100.00;100955.50;4994864;28;20048;-74
2021/08/29 02:29:26;;;;;;;18.20;2.85;;;;;;;12.00;100.00;100949.16;4990473;28;20727;-74
2021/08/29 02:32:30;;;;;;;6.80;2.55;;;;;;;12.07;100.00;100957.28;4991490;28;20639;-74
2021/08/29 02:35:34;;;;;;;7.15;2.38;;;;;;;12.16;100.00;100950.94;4991577;28;20345;-74
2021/08/29 02:38:38;;;;;;;7.75;1.85;;;;;;;12.25;100.00;100958.59;4997102;28;20135;-75
2021/08/29 02:41:42;;;;;;;6.35;1.80;;;;;;;12.13;100.00;100958.22;5031102;28;20479;-74
2021/08/29 02:44:45;;;;;;;3.35;1.67;;;;;;;12.05;100.00;100951.38;5029162;28;20095;-74
2021/08/29 02:47:50;;;;;;;6.20;2.30;;;;;;;12.01;100.00;100947.94;5030646;28;20048;-75
2021/08/29 02:50:54;;;;;;;9.95;1.80;;;;;;;12.02;100.00;100946.69;5031326;28;20650;-74
2021/08/29 02:53:57;;;;;;;7.97;2.15;;;;;;;12.03;100.00;100941.91;5031808;28;20061;-75
2021/08/29 02:57:02;;;;;;;3.42;0.95;;;;;;;11.93;100.00;100951.47;5032211;28;20044;-75
2021/08/29 03:00:05;;;;;;;2.55;0.88;;;;;;;11.81;100.00;100941.94;5030071;28;20095;-76
2021/08/29 03:03:09;;;;;;;1.42;0.63;;;;;;;11.65;100.00;100944.91;5030585;28;20103;-75
2021/08/29 03:06:12;;;;;;;6.38;0.90;;;;;;;11.53;100.00;100940.22;5031365;28;20040;-76
2021/08/29 03:09:15;;;;;;;3.75;1.52;;;;;;;11.44;100.00;100938.16;5031910;28;20084;-75
2021/08/29 03:12:19;;;;;;;6.55;1.75;;;;;;;11.37;100.00;100935.63;5031422;28;20044;-76
2021/08/29 03:15:22;;;;;;;8.40;2.58;;;;;;;11.32;100.00;100935.44;5030544;28;20060;-76
2021/08/29 03:18:26;;;;;;;1.88;0.88;;;;;;;11.25;100.00;100939.25;5029213;28;20129;-75
2021/08/29 03:21:29;;;;;;;2.72;1.42;;;;;;;11.24;100.00;100932.13;5029509;28;20095;-75
2021/08/29 03:24:32;;;;;;;2.28;1.10;;;;;;;11.25;100.00;100930.91;5030168;28;20569;-76
2021/08/29 03:27:36;;;;;;;5.07;1.42;;;;;;;11.34;100.00;100932.97;5030496;28;20175;-76
2021/08/29 03:30:39;;;;;;;2.05;1.08;;;;;;;11.36;100.00;100925.72;5030658;28;20056;-75
2021/08/29 03:33:47;;;;;;;3.47;1.90;;;;;;;11.50;100.00;100934.78;5028804;28;20683;-76
2021/08/29 03:36:50;;;;;;;5.32;1.40;;;;;;;11.54;100.00;100927.84;5030141;28;20053;-76
2021/08/29 03:39:54;;;;;;;3.97;1.15;;;;;;;11.62;100.00;100922.75;5030351;28;20076;-76
2021/08/29 03:42:56;;;;;;;5.68;1.63;;;;;;;11.67;100.00;100936.94;5031207;28;20118;-75
2021/08/29 03:46:00;;;;;;;1.50;1.00;;;;;;;11.72;100.00;100933.53;5030811;28;20052;-75
2021/08/29 03:49:04;;;;;;;2.08;0.75;;;;;;;11.80;100.00;100931.25;5029111;28;20127;-75
2021/08/29 03:52:08;;;;;;;1.90;1.13;;;;;;;11.84;100.00;100924.31;5029606;28;20039;-75
2021/08/29 03:55:14;;;;;;;3.03;1.02;;;;;;;11.83;100.00;100922.72;5029909;28;20044;-75
2021/08/29 03:58:18;;;;;;;3.47;1.73;;;;;;;11.85;100.00;100925.06;5030267;28;20048;-76
2021/08/29 04:01:21;;;;;;;11.63;1.67;;;;;;;11.89;100.00;100926.47;5030809;28;20463;-75
2021/08/29 04:04:24;;;;;;;8.02;1.42;;;;;;;11.91;100.00;100924.00;5028640;28;20598;-75
2021/08/29 04:07:28;;;;;;;4.60;2.22;;;;;;;11.92;100.00;100925.56;5028882;28;20586;-75
2021/08/29 04:10:31;;;;;;;2.55;1.20;;;;;;;12.02;100.00;100923.56;5029570;28;20118;-75
2021/08/29 04:13:36;;;;;;;24.75;1.70;;;;;;;12.10;100.00;100925.66;5029923;28;20095;-75
2021/08/29 04:16:40;;;;;;;4.20;1.30;;;;;;;12.18;100.00;100915.75;5030253;28;20049;-76
2021/08/29 04:19:44;;;;;;;8.32;2.15;;;;;;;12.25;100.00;100920.25;5028254;28;20381;-75
2021/08/29 04:22:47;;;;;;;10.95;1.85;;;;;;;12.33;100.00;100929.13;5029073;28;20450;-76
2021/08/29 04:25:51;;;;;;;13.35;2.42;;;;;;;12.45;100.00;100928.22;5029169;28;20091;-75
2021/08/29 04:28:54;;;;;;;8.23;2.08;;;;;;;12.56;100.00;100929.31;5030756;28;20125;-75
2021/08/29 04:31:58;;;;;;;8.05;2.47;;;;;;;12.66;100.00;100930.13;5030674;28;20083;-75
2021/08/29 04:35:01;;;;;;;8.13;2.25;;;;;;;12.79;100.00;100936.34;5030854;28;20455;-75
2021/08/29 04:38:04;;;;;;;7.35;2.88;;;;;;;12.90;100.00;100931.09;5029913;28;20048;-75
2021/08/29 04:41:06;;;;;;;16.75;2.85;;;;;;;13.06;100.00;100936.38;5030762;28;20048;-75
2021/08/29 04:44:11;;;;;;;7.60;2.92;;;;;;;13.17;100.00;100936.69;5031454;28;20040;-75
2021/08/29 04:47:14;;;;;;;12.85;2.58;;;;;;;13.31;100.00;100933.28;5031156;28;20109;-75
2021/08/29 04:50:17;;;;;;;13.43;3.92;;;;;;;13.44;100.00;100944.28;5031079;28;20056;-75
2021/08/29 04:53:19;;;;;;;13.25;3.60;;;;;;;13.53;100.00;100938.69;5030849;28;20099;-75
2021/08/29 04:56:22;;;;;;;11.43;3.08;;;;;;;13.61;100.00;100935.09;5030652;28;20052;-75
2021/08/29 04:59:25;;;;;;;14.20;3.70;;;;;;;13.72;100.00;100936.59;5030835;28;20513;-75
2021/08/29 05:02:28;;;;;;;9.82;3.60;;;;;;;13.81;100.00;100942.19;5030859;28;20132;-75
2021/08/29 05:05:30;;;;;;;6.82;3.22;;;;;;;13.85;100.00;100951.97;5031083;28;20056;-75
2021/08/29 05:08:33;;;;;;;12.27;2.70;;;;;;;13.95;100.00;100949.91;5030799;28;20076;-76
2021/08/29 05:11:36;;;;;;;17.90;3.75;;;;;;;14.08;100.00;100950.47;5034562;28;20087;-75
2021/08/29 05:14:39;;;;;;;10.40;3.17;;;;;;;14.11;100.00;100950.31;5034452;28;20152;-75
2021/08/29 05:17:42;;;;;;;7.53;3.15;;;;;;;14.14;100.00;100948.59;5034389;28;20072;-75
2021/08/29 05:20:45;;;;;;;9.25;3.03;;;;;;;14.10;100.00;100957.16;5034436;28;20052;-75
2021/08/29 05:23:47;;;;;;;8.82;2.72;;;;;;;14.06;100.00;100953.75;5034432;28;20063;-75
2021/08/29 05:26:50;;;;;;;19.92;3.95;;;;;;;14.01;100.00;100962.03;5034336;28;20462;-75
2021/08/29 05:29:53;;;;;;;5.43;1.95;;;;;;;13.93;100.00;100958.00;5034541;28;20569;-77
2021/08/29 05:32:57;;;;;;;11.15;3.58;;;;;;;13.80;100.00;100963.00;5034240;28;20154;-77
2021/08/29 05:36:00;;;;;;;12.23;2.97;;;;;;;13.69;100.00;100969.09;5034154;28;20513;-77
2021/08/29 05:39:03;;;;;;;10.88;3.58;;;;;;;13.64;100.00;100962.13;5033983;28;20056;-77
2021/08/29 05:42:06;;;;;;;11.52;3.05;;;;;;;13.56;100.00;100963.69;5032918;28;20192;-77
2021/08/29 05:45:09;;;;;;;9.05;3.25;;;;;;;13.47;100.00;100963.72;5033419;28;20503;-76
2021/08/29 05:48:13;;;;;;;15.75;4.35;;;;;;;13.38;100.00;100969.31;5033404;28;20103;-76
2021/08/29 05:51:17;;;;;;;11.45;2.60;;;;;;;13.31;100.00;100964.06;5033355;28;20048;-76
2021/08/29 05:54:19;;;;;;;5.22;2.45;;;;;;;13.45;100.00;100962.63;5032885;28;20416;-76
2021/08/29 05:57:22;;;;;;;9.05;3.13;;;;;;;13.26;100.00;100959.06;5015242;28;20100;-76
2021/08/29 06:00:25;;;;;;;7.75;2.95;;;;;;;13.28;100.00;100967.78;5013100;28;20048;-76
2021/08/29 06:03:28;;;;;;;8.38;2.40;;;;;;;13.08;100.00;100969.50;5013145;28;20103;-77
2021/08/29 06:06:35;;;;;;;8.35;2.08;;;;;;;13.02;100.00;100972.09;5013218;28;20040;-76
2021/08/29 06:09:38;;;;;;;13.45;3.20;;;;;;;12.94;100.00;100965.25;5033084;28;20052;-76
2021/08/29 06:12:41;;;;;;;7.47;2.05;;;;;;;12.95;100.00;100966.78;5033164;28;20057;-76
2021/08/29 06:15:44;;;;;;;1.88;1.38;;;;;;;12.93;100.00;100966.47;5033548;28;20095;-76
2021/08/29 06:18:46;;;;;;;11.38;1.98;;;;;;;12.93;100.00;100974.88;5033585;28;20148;-76
2021/08/29 06:21:49;;;;;;;2.03;0.85;;;;;;;12.91;100.00;100971.75;5033415;28;20053;-76
2021/08/29 06:24:52;;;;;;;9.77;2.60;;;;;;;12.91;100.00;100971.75;5033409;28;20088;-76
2021/08/29 06:27:55;;;;;;;2.75;1.70;;;;;;;12.92;100.00;100970.53;5033209;28;20176;-76
2021/08/29 06:30:58;;;;;;;3.17;1.30;;;;;;;12.94;100.00;100976.44;5033433;28;20096;-76
2021/08/29 06:34:01;;;;;;;16.45;2.03;;;;;;;12.95;100.00;100969.59;5033622;28;20055;-76
2021/08/29 06:37:04;;;;;;;2.47;0.93;;;;;;;12.95;100.00;100975.19;5032434;28;20045;-76
2021/08/29 06:40:07;;;;;;;2.88;0.95;;;;;;;12.92;100.00;100979.72;5033440;28;20052;-76
2021/08/29 06:43:09;;;;;;;1.65;1.55;;;;;;;13.05;100.00;100976.78;5033046;28;20045;-76
2021/08/29 06:46:12;;;;;;;7.63;1.15;;;;;;;13.21;100.00;100979.25;5033106;28;20056;-76
2021/08/29 06:49:15;;;;;;;4.32;1.75;;;;;;;13.52;100.00;100977.06;5032886;28;20088;-76
2021/08/29 06:52:18;;;;;;;1.80;1.08;;;;;;;13.85;100.00;100979.97;5032916;28;20099;-77
2021/08/29 06:55:21;;;;;;;8.00;1.67;;;;;;;14.09;100.00;100982.84;5032490;28;20099;-77
2021/08/29 06:58:24;;;;;;;1.80;0.70;;;;;;;14.36;100.00;100971.53;5020263;28;20052;-77
2021/08/29 07:01:26;;;;;;;8.05;1.85;;;;;;;14.48;100.00;100967.75;5032270;28;20044;-78
2021/08/29 07:04:29;;;;;;;10.35;1.77;;;;;;;14.70;100.00;100971.06;5032515;28;20048;-78
2021/08/29 07:07:32;;;;;;;2.15;1.15;;;;;;;14.87;100.00;100966.59;5032230;28;20095;-78
2021/08/29 07:10:35;;;;;;;2.42;1.50;;;;;;;15.04;100.00;100969.72;5032504;28;20151;-77
2021/08/29 07:13:38;;;;;;;1.00;0.68;;;;;;;15.23;100.00;100967.53;5032529;28;20064;-78
2021/08/29 07:16:41;;;;;;;5.53;1.15;;;;;;;15.35;100.00;100980.53;5034869;28;20553;-77
2021/08/29 07:19:45;;;;;;;4.40;1.35;;;;;;;15.43;100.00;100962.88;5021397;28;20060;-78
2021/08/29 07:22:48;;;;;;;1.92;0.85;;;;;;;15.54;100.00;100970.72;5032375;28;20072;-81
2021/08/29 07:25:50;;;;;;;3.15;0.63;;;;;;;15.64;100.00;100964.53;5031622;28;20141;-80
2021/08/29 07:28:53;;;;;;;9.82;1.70;;;;;;;15.72;100.00;100956.50;5019855;28;20052;-79
2021/08/29 07:31:57;;;;;;;1.83;0.73;;;;;;;15.93;100.00;100966.56;5031447;28;20415;-80
2021/08/29 07:35:00;;;;;;;3.30;0.52;;;;;;;15.89;100.00;100960.38;5032507;28;20458;-80
2021/08/29 07:38:05;;;;;;;8.85;0.77;;;;;;;15.98;100.00;100967.91;5019828;28;20060;-79
2021/08/29 07:41:07;;;;;;;0.95;0.25;;;;;;;16.09;100.00;100960.44;5032193;28;20072;-80
2021/08/29 07:44:10;;;;;;;1.58;0.52;;;;;;;16.20;100.00;100963.41;5032137;28;20463;-79
2021/08/29 07:47:13;;;;;;;2.47;0.28;;;;;;;16.34;100.00;100957.00;5031951;28;20107;-79
2021/08/29 07:50:16;;;;;;;9.77;1.30;;;;;;;16.46;100.00;100958.69;5031857;28;20044;-79
2021/08/29 07:53:20;;;;;;;3.33;0.80;;;;;;;16.52;100.00;100953.94;5031636;28;20055;-79
2021/08/29 07:56:22;;;;;;;3.70;0.50;;;;;;;16.55;100.00;100944.53;5031202;28;20052;-79
2021/08/29 07:59:25;;;;;;;4.78;0.45;;;;;;;16.52;100.00;100941.97;5031377;28;20410;-80
2021/08/29 08:02:28;;;;;;;0.80;0.68;;;;;;;16.46;100.00;100939.00;5019175;28;20049;-77
2021/08/29 08:05:31;;;;;;;5.43;0.73;;;;;;;16.51;100.00;100944.00;5031303;28;20526;-77
2021/08/29 08:08:34;;;;;;;1.77;0.17;;;;;;;16.53;100.00;100941.47;5031352;28;20048;-80
2021/08/29 08:11:37;;;;;;;3.13;0.65;;;;;;;17.00;100.00;100948.69;5031574;28;20052;-77
2021/08/29 08:14:39;;;;;;;3.30;0.90;;;;;;;17.06;100.00;100955.19;5031284;28;20043;-77
2021/08/29 08:17:42;;;;;;;1.48;0.70;;;;;;;17.13;100.00;100954.00;5031228;28;20434;-77
2021/08/29 08:20:45;;;;;;;5.90;0.65;;;;;;;17.03;100.00;100952.56;5031596;28;20045;-78
2021/08/29 08:23:49;;;;;;;0.30;0.30;;;;;;;16.91;100.00;100953.72;5031726;28;20048;-77
2021/08/29 08:26:52;;;;;;;0.73;0.22;;;;;;;16.75;100.00;100949.41;5027952;28;20076;-80
2021/08/29 08:29:54;;;;;;;1.77;0.30;;;;;;;16.41;100.00;100950.19;5027763;28;20065;-79
2021/08/29 08:32:58;;;;;;;2.55;0.55;;;;;;;15.84;100.00;100961.03;5029045;28;20458;-75
2021/08/29 08:36:01;;;;;;;5.88;1.00;;;;;;;16.15;100.00;100952.88;5031042;28;20096;-80
2021/08/29 08:39:04;;;;;;;0.50;0.35;;;;;;;16.11;100.00;100959.97;5031207;28;20518;-79
2021/08/29 08:42:07;;;;;;;3.45;0.65;;;;;;;15.37;100.00;100955.56;5031496;28;20407;-80
2021/08/29 08:45:11;;;;;;;6.53;0.22;;;;;;;16.09;100.00;100966.03;5034654;28;20048;-79
2021/08/29 08:48:14;;;;;;;6.30;0.60;;;;;;;16.41;100.00;100964.25;5035460;28;20407;-79
2021/08/29 08:51:24;;;;;;;0.88;0.32;;;;;;;17.15;100.00;100951.44;5033314;28;20045;-79
2021/08/29 08:54:29;;;;;;;3.03;0.82;;;;;;;17.72;100.00;100960.00;5021446;28;20581;-79
2021/08/29 08:57:33;;;;;;;7.57;0.85;;;;;;;17.86;100.00;100954.25;5034188;28;20049;-79
2021/08/29 09:00:36;;;;;;;8.27;0.57;;;;;;;18.30;100.00;100958.69;5034609;28;20100;-79
2021/08/29 09:03:40;;;;;;;1.27;0.57;;;;;;;18.31;100.00;100965.88;5034167;28;20051;-79
2021/08/29 09:06:43;;;;;;;5.38;0.57;;;;;;;17.64;100.00;100965.31;5014981;28;20049;-78
2021/08/29 09:09:46;;;;;;;2.53;0.70;;;;;;;18.00;100.00;100970.25;5020284;28;20045;-80
2021/08/29 09:12:57;;;;;;;2.13;0.63;;;;;;;18.28;100.00;100972.53;5023186;28;20130;-79
2021/08/29 09:16:13;;;;;;;2.28;0.40;;;;;;;18.59;100.00;100975.31;5034064;28;20103;-78
2021/08/29 09:19:18;;;;;;;0.50;0.38;;;;;;;18.17;100.00;100979.59;5033347;28;20048;-78
2021/08/29 09:22:26;;;;;;;4.10;0.52;;;;;;;18.48;100.00;100966.78;5032247;28;20048;-80
2021/08/29 09:25:32;;;;;;;2.22;0.20;;;;;;;18.69;100.00;100982.31;5033321;28;20522;-81
2021/08/29 09:28:35;;;;;;;2.28;0.60;;;;;;;18.67;100.00;100976.38;5021202;28;20056;-80
2021/08/29 09:31:47;;;;;;;4.03;0.50;;;;;;;18.99;100.00;100977.06;5000860;28;20056;-79
2021/08/29 09:34:59;;;;;;;2.72;0.82;;;;;;;19.43;100.00;100968.75;5000595;28;20420;-78
2021/08/29 09:38:06;;;;;;;4.43;0.30;;;;;;;19.78;100.00;100971.91;5001301;28;20064;-82
2021/08/29 09:41:25;;;;;;;3.03;0.28;;;;;;;19.84;100.00;100981.16;5000906;28;20064;-82
2021/08/29 09:44:33;;;;;;;2.75;0.73;;;;;;;19.36;100.00;100986.97;5000597;28;20048;-81
2021/08/29 09:47:36;;;;;;;2.10;0.35;;;;;;;19.24;100.00;100993.84;4999560;28;20633;-81
2021/08/29 09:50:42;;;;;;;0.65;0.20;;;;;;;18.42;100.00;100994.16;5000132;28;21070;-81
2021/08/29 09:53:46;;;;;;;1.98;0.22;;;;;;;17.42;100.00;100993.22;5000488;28;21096;-81
2021/08/29 09:56:50;;;;;;;6.95;0.60;;;;;;;16.63;100.00;100987.13;5000356;28;20048;-80
2021/08/29 09:59:53;;;;;;;5.97;1.50;;;;;;;16.59;100.00;100994.97;4990295;28;20474;-81
2021/08/29 10:03:04;;;;;;;2.10;0.60;;;;;;;16.63;100.00;100985.06;5002446;28;20098;-82
2021/08/29 10:06:22;;;;;;;1.10;0.45;;;;;;;17.06;100.00;100985.38;5004431;28;21145;-80
2021/08/29 10:09:26;;;;;;;4.75;1.50;;;;;;;17.69;100.00;100992.78;4970044;28;20451;-80
2021/08/29 10:12:30;;;;;;;3.72;0.65;;;;;;;19.10;100.00;100989.16;4982057;28;21147;-79
2021/08/29 10:15:34;;;;;;;0.75;0.10;;;;;;;19.40;100.00;100984.69;4970184;28;20108;-78
2021/08/29 10:18:40;;;;;;;0.70;0.38;;;;;;;20.02;100.00;100991.97;4981580;28;20061;-80
2021/08/29 10:21:45;;;;;;;1.83;0.50;;;;;;;20.44;100.00;100987.38;4982431;28;20048;-79
2021/08/29 10:24:49;;;;;;;1.40;0.68;;;;;;;19.05;100.00;100983.50;4999239;28;20136;-79
2021/08/29 10:28:03;;;;;;;7.85;0.80;;;;;;;19.10;100.00;100991.97;4998189;28;20154;-80
2021/08/29 10:31:11;;;;;;;1.13;0.70;;;;;;;18.89;100.00;100993.44;4998362;28;20048;-79
2021/08/29 10:34:14;;;;;;;4.80;1.38;;;;;;;18.96;100.00;100992.97;4987677;28;20098;-79
2021/08/29 10:37:17;;;;;;;4.45;1.00;;;;;;;19.71;100.00;100994.28;4987106;28;21247;-80
2021/08/29 10:40:22;;;;;;;0.95;0.40;;;;;;;19.89;100.00;100999.41;4980168;28;20100;-80
2021/08/29 10:43:25;;;;;;;1.10;0.43;;;;;;;20.72;100.00;100979.59;4978394;28;20045;-81
2021/08/29 10:46:29;;;;;;;2.25;0.40;;;;;;;20.85;100.00;100983.41;4978681;28;20131;-81
2021/08/29 10:49:34;;;;;;;6.15;1.17;;;;;;;21.51;100.00;100990.06;4979046;28;20890;-80
2021/08/29 10:52:38;;;;;;;1.80;0.47;;;;;;;20.95;100.00;100992.38;4979212;28;20990;-79
2021/08/29 10:55:41;;;;;;;2.65;0.60;;;;;;;20.85;100.00;100991.91;4980993;28;20049;-81
2021/08/29 10:58:47;;;;;;;5.28;0.85;;;;;;;20.56;100.00;101000.97;4968171;28;20099;-81
2021/08/29 11:02:12;;;;;;;6.68;0.88;;;;;;;20.35;100.00;100997.66;4980137;28;20072;-82
2021/08/29 11:05:36;;;;;;;2.20;0.68;;;;;;;20.47;100.00;100995.56;4967659;28;20068;-80
2021/08/29 11:08:39;;;;;;;0.93;0.30;;;;;;;18.95;100.00;101002.69;4992761;28;20048;-81
2021/08/29 11:11:49;;;;;;;3.47;0.45;;;;;;;18.71;100.00;100999.50;4999839;28;20126;-81
2021/08/29 11:14:54;;;;;;;0.80;0.55;;;;;;;18.72;100.00;101001.03;4999924;28;20111;-81
2021/08/29 11:18:03;;;;;;;4.68;0.73;;;;;;;19.45;100.00;100995.22;4987181;28;20075;-81
2021/08/29 11:21:06;;;;;;;1.48;0.30;;;;;;;20.56;100.00;100992.47;4999268;28;20294;-81
2021/08/29 11:24:09;;;;;;;0.20;0.20;;;;;;;19.74;100.00;100998.88;4997628;28;20037;-78
2021/08/29 11:27:39;;;;;;;0.98;0.15;;;;;;;19.32;100.00;101003.38;4992948;28;20138;-77
2021/08/29 11:30:43;;;;;;;1.60;0.22;;;;;;;19.44;100.00;100987.25;4981445;28;20056;-78
2021/08/29 11:33:46;;;;;;;0.82;0.30;;;;;;;19.70;100.00;101004.03;4981455;28;20229;-77
2021/08/29 11:36:51;;;;;;;2.00;1.02;;;;;;;19.91;100.00;100997.63;4994586;28;20052;-77
2021/08/29 11:40:02;;;;;;;2.10;0.32;;;;;;;19.93;100.00;101000.72;4994173;28;20045;-78
2021/08/29 11:43:14;;;;;;;;;;;;;;;19.30;100.00;100999.50;4994387;28;20053;-80
2021/08/29 11:46:23;;;;;;;1.88;0.63;;;;;;;18.43;100.00;100995.72;5000003;28;19927;-79
2021/08/29 11:49:27;;;;;;;2.42;0.25;;;;;;;19.51;100.00;101001.66;4987512;28;20107;-79
2021/08/29 11:52:32;;;;;;;1.25;0.40;;;;;;;19.88;100.00;100992.97;5000784;28;20115;-78
2021/08/29 11:55:36;;;;;;;0.95;0.20;;;;;;;19.88;100.00;100992.25;4999826;28;20095;-78
2021/08/29 11:58:44;;;;;;;1.85;0.25;;;;;;;19.83;100.00;100990.16;4997568;28;20081;-78
2021/08/29 12:01:54;;;;;;;11.85;0.63;;;;;;;20.11;100.00;100993.78;4992347;28;20064;-78
2021/08/29 12:05:07;;;;;;;1.75;0.40;;;;;;;20.16;100.00;100995.84;4988919;28;20188;-79
2021/08/29 12:08:13;;;;;;;3.50;0.50;;;;;;;20.30;100.00;100992.78;4984961;28;20214;-79
2021/08/29 12:11:16;;;;;;;3.45;0.20;;;;;;;20.44;100.00;100988.13;4985702;28;20144;-78
2021/08/29 12:14:28;;;;;;;4.05;0.65;;;;;;;20.48;100.00;100985.03;4984348;28;20068;-79
2021/08/29 12:17:33;;;;;;;0.55;0.20;;;;;;;20.10;100.00;100992.22;4984292;28;20238;-79
2021/08/29 12:20:36;;;;;;;0.80;0.13;;;;;;;20.36;100.00;100982.22;4984933;28;20099;-79
2021/08/29 12:23:40;;;;;;;0.68;0.30;;;;;;;20.41;100.00;100983.50;4984333;28;20277;-79
2021/08/29 12:26:43;;;;;;;1.30;0.32;;;;;;;20.32;100.00;100980.94;4985417;28;20213;-78
2021/08/29 12:29:52;;;;;;;1.08;0.73;;;;;;;20.24;100.00;100979.91;4986356;28;20306;-78
2021/08/29 12:33:08;;;;;;;1.40;0.47;;;;;;;20.26;100.00;100983.00;4985637;28;20153;-78
2021/08/29 12:36:11;;;;;;;2.38;0.43;;;;;;;20.42;100.00;100976.56;4985266;28;20443;-78
2021/08/29 12:39:15;;;;;;;0.63;0.32;;;;;;;20.53;100.00;100976.53;4985406;28;20072;-79
2021/08/29 12:42:20;;;;;;;0.43;0.15;;;;;;;19.52;100.00;100977.78;4985279;28;20310;-78
2021/08/29 12:45:23;;;;;;;1.13;0.10;;;;;;;18.85;100.00;100979.56;4985319;28;20381;-79
2021/08/29 12:48:27;;;;;;;1.85;0.43;;;;;;;19.24;100.00;100974.06;4985897;28;20223;-79
2021/08/29 12:51:30;;;;;;;1.13;0.30;;;;;;;19.29;100.00;100969.72;4985376;28;20274;-78
2021/08/29 12:54:33;;;;;;;0.10;0.10;;;;;;;19.94;100.00;100973.22;4985418;28;20142;-78
2021/08/29 12:57:37;;;;;;;0.93;0.55;;;;;;;20.05;100.00;100968.34;4987785;28;20353;-79
2021/08/29 13:00:42;;;;;;;0.43;0.28;;;;;;;20.26;100.00;100963.19;4993994;28;20114;-80
2021/08/29 13:03:48;;;;;;;1.27;0.20;;;;;;;19.35;100.00;100974.16;4983319;28;20045;-80
2021/08/29 13:07:08;;;;;;;2.05;0.40;;;;;;;19.87;100.00;100976.53;4989981;28;20047;-79
2021/08/29 13:10:12;;;;;;;9.25;1.13;;;;;;;20.40;100.00;100971.41;4985578;28;20076;-80
2021/08/29 13:13:14;;;;;;;1.20;0.80;;;;;;;19.87;100.00;100979.38;4962023;28;20076;-81
2021/08/29 13:16:18;;;;;;;1.65;0.47;;;;;;;18.54;100.00;100978.84;4973794;28;20306;-79
2021/08/29 13:19:27;;;;;;;1.13;0.35;;;;;;;18.43;100.00;100973.88;4974164;28;20449;-79
2021/08/29 13:22:37;;;;;;;1.67;0.70;;;;;;;18.38;100.00;100976.69;4976304;28;20053;-78
2021/08/29 13:25:49;;;;;;;0.60;0.10;;;;;;;18.06;100.00;100973.13;4978255;28;20060;-78
2021/08/29 13:28:57;;;;;;;2.70;0.25;;;;;;;18.19;100.00;100968.59;4980072;28;20602;-78
2021/08/29 13:32:01;;;;;;;4.72;0.22;;;;;;;18.38;100.00;100971.03;4983565;28;20072;-79
2021/08/29 13:35:14;;;;;;;1.30;0.28;;;;;;;18.36;100.00;100974.38;4982720;28;20107;-79
2021/08/29 13:38:18;;;;;;;3.35;0.63;;;;;;;18.59;100.00;100969.66;4970439;28;20076;-78
2021/08/29 13:41:22;;;;;;;1.00;0.30;;;;;;;18.66;100.00;100972.03;4984442;28;20065;-78
2021/08/29 13:44:27;;;;;;;6.13;0.30;;;;;;;18.87;100.00;100967.75;4988243;28;20190;-79
2021/08/29 13:47:30;;;;;;;5.00;0.35;;;;;;;19.19;100.00;100957.88;4984325;28;20365;-80
2021/08/29 13:50:38;;;;;;;2.40;0.40;;;;;;;19.09;100.00;100953.75;4975822;28;20244;-77
2021/08/29 13:53:42;;;;;;;2.38;0.98;;;;;;;20.51;100.00;100947.97;4975743;28;20088;-77
2021/08/29 13:56:45;;;;;;;2.90;0.75;;;;;;;18.67;100.00;100953.78;4977000;28;20123;-78
2021/08/29 13:59:48;;;;;;;3.05;0.40;;;;;;;18.36;100.00;100951.81;4975951;28;20172;-78
2021/08/29 14:02:54;;;;;;;1.20;0.55;;;;;;;19.77;100.00;100944.94;4976062;28;20040;-79
2021/08/29 14:05:59;;;;;;;1.30;0.45;;;;;;;18.22;100.00;100946.31;4978919;28;20044;-77
2021/08/29 14:09:03;;;;;;;2.53;0.82;;;;;;;18.09;100.00;100955.97;4995666;28;20134;-77